Time;durP1;ratioP1;P1;durP2;ratioP2;P2;SDS_P1;SDS_P2;PMS_P1;PMS_P2;Temp;Humidity;BMP_temperature;BMP_pressure;BME280_temperature;BME280_humidity;BME280_pressure;Samples;Min_cycle;Max_cycle;Signal;HPM_P1;HPM_P2
2024/04/11 00:00:14;;;;;;;;;;;;;;;9.24;100.00;97926.03;108764;1278;25084;-90
2024/04/11 00:03:00;;;;;;;;;;;;;;;9.24;100.00;97933.13;108704;1276;125371;-90
2024/04/11 00:05:27;;;;;;;;;;;;;;;9.24;100.00;97936.38;108736;1278;26614;-90
2024/04/11 00:07:53;;;;;;;;;;;;;;;9.25;100.00;97938.59;108699;1268;125162;-90
2024/04/11 00:10:20;;;;;;;;;;;;;;;9.25;100.00;97935.13;108952;1277;23404;-89
2024/04/11 00:12:46;;;;;;;;;;;;;;;9.26;100.00;97934.68;108842;1278;22544;-91
2024/04/11 00:15:13;;;;;;;;;;;;;;;9.26;100.00;97931.57;108707;1273;124852;-90
2024/04/11 00:17:39;;;;;;;;;;;;;;;9.26;100.00;97932.90;108907;1271;22494;-90
2024/04/11 00:20:06;;;;;;;;;;;;;;;9.26;100.00;97931.39;108736;1278;124994;-91
2024/04/11 00:22:33;;;;;;;;;;;;;;;9.27;100.00;97935.65;108870;1271;22497;-91
2024/04/11 00:24:59;;;;;;;;;;;;;;;9.27;100.00;97938.02;108923;1271;22693;-90
2024/04/11 00:27:26;;;;;;;;;;;;;;;9.27;100.00;97937.02;108755;1279;124795;-90
2024/04/11 00:29:52;;;;;;;;;;;;;;;9.28;100.00;97938.27;108751;1271;25191;-90
2024/04/11 00:32:19;;;;;;;;;;;;;;;9.28;100.00;97935.86;108634;1277;125240;-90
2024/04/11 00:34:45;;;;;;;;;;;;;;;9.29;100.00;97939.77;108650;1278;22547;-91
2024/04/11 00:37:11;;;;;;;;;;;;;;;9.31;100.00;97939.19;108834;1278;22493;-90
2024/04/11 00:39:38;;;;;;;;;;;;;;;9.32;100.00;97939.16;108719;1277;124845;-90
2024/04/11 00:42:07;;;;;;;;;;;;;;;9.33;100.00;97937.13;108820;1270;25404;-90
2024/04/11 00:44:33;;;;;;;;;;;;;;;9.32;100.00;97938.12;108689;1268;124741;-90
2024/04/11 00:47:00;;;;;;;;;;;;;;;9.33;100.00;97939.57;108761;1275;22880;-91
2024/04/11 00:49:26;;;;;;;;;;;;;;;9.33;100.00;97938.71;108557;1278;124921;-90
2024/04/11 00:51:52;;;;;;;;;;;;;;;9.34;100.00;97939.48;108836;1277;22605;-90
2024/04/11 00:54:19;;;;;;;;;;;;;;;9.36;100.00;97938.48;109008;1277;22520;-91
2024/04/11 00:56:46;;;;;;;;;;;;;;;9.36;100.00;97932.57;108756;1276;125798;-91
2024/04/11 00:59:14;;;;;;;;;;;;;;;9.36;100.00;97927.96;108845;1277;22501;-90
2024/04/11 01:01:41;;;;;;;;;;;;;;;9.37;100.00;97923.66;108758;1270;125066;-90
2024/04/11 01:04:07;;;;;;;;;;;;;;;9.38;100.00;97920.31;108854;1277;22520;-90
2024/04/11 01:06:41;;;;;;;;;;;;;;;9.38;100.00;97915.60;108935;1277;22546;-90
2024/04/11 01:09:17;;;;;;;;;;;;;;;9.39;100.00;97918.13;108962;1277;124917;-90
2024/04/11 01:11:43;;;;;;;;;;;;;;;9.36;100.00;97915.80;108926;1272;22501;-89
2024/04/11 01:14:10;;;;;;;;;;;;;;;9.36;100.00;97910.67;108773;1273;124802;-91
2024/04/11 01:16:37;;;;;;;;;;;;;;;9.36;100.00;97911.17;108920;1278;22647;-90
2024/04/11 01:19:05;;;;;;;;;;;;;;;9.36;100.00;97909.03;108856;1272;25226;-90
2024/04/11 01:21:31;;;;;;;;;;;;;;;9.37;100.00;97910.67;108886;1274;125237;-90
2024/04/11 01:23:58;;;;;;;;;;;;;;;9.36;100.00;97909.75;108857;1277;23317;-90
2024/04/11 01:26:24;;;;;;;;;;;;;;;9.35;100.00;97910.73;108876;1274;124921;-90
2024/04/11 01:28:51;;;;;;;;;;;;;;;9.34;100.00;97907.67;108876;1277;22495;-90
2024/04/11 01:31:18;;;;;;;;;;;;;;;9.33;100.00;97906.04;108959;1275;22488;-90
2024/04/11 01:33:46;;;;;;;;;;;;;;;9.31;100.00;97907.21;108582;1279;125258;-90
2024/04/11 01:36:13;;;;;;;;;;;;;;;9.29;100.00;97912.95;108790;1278;22583;-90
2024/04/11 01:38:41;;;;;;;;;;;;;;;9.25;100.00;97915.02;108721;1278;124830;-90
2024/04/11 01:41:08;;;;;;;;;;;;;;;9.23;100.00;97918.02;108851;1275;22507;-90
2024/04/11 01:43:35;;;;;;;;;;;;;;;9.21;100.00;97924.42;108585;1270;125571;-91
2024/04/11 01:46:02;;;;;;;;;;;;;;;9.18;100.00;97924.84;108889;1274;22509;-90
2024/04/11 01:48:29;;;;;;;;;;;;;;;9.16;100.00;97928.16;108858;1278;25207;-90
2024/04/11 01:50:55;;;;;;;;;;;;;;;9.14;100.00;97928.15;108789;1272;124857;-90
2024/04/11 01:53:22;;;;;;;;;;;;;;;9.14;100.00;97928.52;108826;1278;22574;-90
2024/04/11 01:55:48;;;;;;;;;;;;;;;9.13;100.00;97925.45;108780;1278;125566;-89
2024/04/11 01:58:15;;;;;;;;;;;;;;;9.13;100.00;97923.91;108903;1277;22533;-90
2024/04/11 02:00:43;;;;;;;;;;;;;;;9.13;100.00;97918.59;108746;1274;22517;-90
2024/04/11 02:03:10;;;;;;;;;;;;;;;9.13;100.00;97919.27;108748;1275;125424;-90
2024/04/11 02:05:36;;;;;;;;;;;;;;;9.12;100.00;97917.06;108948;1272;26735;-89
2024/04/11 02:08:03;;;;;;;;;;;;;;;9.11;100.00;97921.48;108747;1278;125082;-90
2024/04/11 02:10:29;;;;;;;;;;;;;;;9.09;100.00;97921.98;108797;1273;22577;-90
2024/04/11 02:12:59;;;;;;;;;;;;;;;9.08;100.00;97924.20;108718;1276;22688;-90
2024/04/11 02:15:26;;;;;;;;;;;;;;;9.06;100.00;97922.25;108617;1277;125069;-91
2024/04/11 02:17:53;;;;;;;;;;;;;;;9.06;100.00;97922.43;108665;1278;22544;-90
2024/04/11 02:20:20;;;;;;;;;;;;;;;9.07;100.00;97916.52;108780;1278;124739;-91
2024/04/11 02:22:47;;;;;;;;;;;;;;;9.08;100.00;97914.31;108772;1278;22534;-90
2024/04/11 02:25:14;;;;;;;;;;;;;;;9.10;100.00;97915.73;108687;1278;25010;-90
2024/04/11 02:27:40;;;;;;;;;;;;;;;9.09;100.00;97916.98;108745;1278;124758;-91
2024/04/11 02:30:09;;;;;;;;;;;;;;;9.08;100.00;97914.50;108612;1278;22535;-90
2024/04/11 02:32:41;;;;;;;;;;;;;;;9.09;100.00;97909.94;108760;1278;124997;-90
2024/04/11 02:35:09;;;;;;;;;;;;;;;9.10;100.00;97911.41;108664;1278;22556;-90
2024/04/11 02:37:35;;;;;;;;;;;;;;;9.12;100.00;97911.39;109068;1273;124898;-89
2024/04/11 02:40:02;;;;;;;;;;;;;;;9.12;100.00;97908.43;108853;1278;22645;-91
2024/04/11 02:42:28;;;;;;;;;;;;;;;9.13;100.00;97908.20;108831;1278;22548;-90
2024/04/11 02:44:56;;;;;;;;;;;;;;;9.13;100.00;97910.98;108785;1273;124717;-90
2024/04/11 02:47:22;;;;;;;;;;;;;;;9.12;100.00;97911.94;108825;1272;25205;-90
2024/04/11 02:49:50;;;;;;;;;;;;;;;9.10;100.00;97910.81;108626;1278;125372;-89
2024/04/11 02:52:17;;;;;;;;;;;;;;;9.09;100.00;97908.48;108816;1278;22526;-90
2024/04/11 02:54:43;;;;;;;;;;;;;;;9.08;100.00;97911.36;108879;1278;22497;-90
2024/04/11 02:57:10;;;;;;;;;;;;;;;9.06;100.00;97911.52;108741;1278;124989;-90
2024/04/11 02:59:38;;;;;;;;;;;;;;;9.05;100.00;97910.27;108832;1276;22570;-90
2024/04/11 03:02:04;;;;;;;;;;;;;;;9.03;100.00;97907.63;108719;1278;125098;-91
2024/04/11 03:04:31;;;;;;;;;;;;;;;9.05;100.00;97903.00;108702;1278;22521;-90
2024/04/11 03:06:57;;;;;;;;;;;;;;;9.03;100.00;97902.82;108913;1278;22675;-89
2024/04/11 03:09:23;;;;;;;;;;;;;;;9.03;100.00;97905.41;108721;1271;124900;-90
2024/04/11 03:11:50;;;;;;;;;;;;;;;9.03;100.00;97908.85;108652;1271;22690;-89
2024/04/11 03:14:16;;;;;;;;;;;;;;;9.01;100.00;97906.26;108795;1277;124799;-90
2024/04/11 03:16:43;;;;;;;;;;;;;;;8.99;100.00;97902.84;108905;1277;22529;-90
2024/04/11 03:19:09;;;;;;;;;;;;;;;8.96;100.00;97906.23;108849;1270;22491;-90
2024/04/11 03:21:36;;;;;;;;;;;;;;;8.93;100.00;97907.98;108747;1278;125083;-90
2024/04/11 03:24:03;;;;;;;;;;;;;;;8.90;100.00;97904.00;108858;1277;23188;-89
2024/04/11 03:26:30;;;;;;;;;;;;;;;8.87;100.00;97904.92;108627;1278;124871;-91
2024/04/11 03:28:56;;;;;;;;;;;;;;;8.84;100.00;97904.67;108807;1278;22532;-90
2024/04/11 03:31:23;;;;;;;;;;;;;;;8.81;100.00;97901.30;108609;1277;125173;-88
2024/04/11 03:33:50;;;;;;;;;;;;;;;8.79;100.00;97900.30;108829;1277;22493;-89
2024/04/11 03:36:19;;;;;;;;;;;;;;;8.76;100.00;97901.61;108855;1277;22695;-90
2024/04/11 03:38:45;;;;;;;;;;;;;;;8.72;100.00;97903.08;108597;1277;124884;-91
2024/04/11 03:41:12;;;;;;;;;;;;;;;8.70;100.00;97906.71;108839;1277;22527;-90
2024/04/11 03:43:39;;;;;;;;;;;;;;;8.69;100.00;97905.79;108746;1275;125464;-90
2024/04/11 03:46:09;;;;;;;;;;;;;;;8.69;100.00;97908.91;108947;1275;23264;-90
2024/04/11 03:48:36;;;;;;;;;;;;;;;8.69;100.00;97908.54;108749;1278;24244;-90
2024/04/11 03:51:15;;;;;;;;;;;;;;;8.68;100.00;97905.21;108661;1278;124688;-90
2024/04/11 03:53:42;;;;;;;;;;;;;;;8.69;100.00;97904.39;108845;1278;23829;-91
2024/04/11 03:56:08;;;;;;;;;;;;;;;8.70;100.00;97902.98;108783;1278;124934;-90
2024/04/11 03:58:37;;;;;;;;;;;;;;;8.71;100.00;97907.32;108835;1279;25380;-91
2024/04/11 04:01:05;;;;;;;;;;;;;;;8.72;100.00;97909.33;108811;1275;22541;-90
2024/04/11 04:03:32;;;;;;;;;;;;;;;8.73;100.00;97911.81;108751;1276;124604;-90
2024/04/11 04:05:59;;;;;;;;;;;;;;;8.74;100.00;97913.45;108733;1268;22539;-90
2024/04/11 04:08:26;;;;;;;;;;;;;;;8.75;100.00;97916.48;108770;1274;124681;-90
2024/04/11 04:10:52;;;;;;;;;;;;;;;8.77;100.00;97918.27;108806;1261;22531;-90
2024/04/11 04:13:18;;;;;;;;;;;;;;;8.76;100.00;97914.14;108806;1278;23862;-90
2024/04/11 04:15:45;;;;;;;;;;;;;;;8.77;100.00;97912.72;108609;1268;124646;-91
2024/04/11 04:18:12;;;;;;;;;;;;;;;8.78;100.00;97910.59;108865;1275;25185;-90
2024/04/11 04:20:42;;;;;;;;;;;;;;;8.77;100.00;97914.77;108739;1277;124926;-90
2024/04/11 04:23:10;;;;;;;;;;;;;;;8.78;100.00;97912.67;108810;1265;22558;-90
2024/04/11 04:25:39;;;;;;;;;;;;;;;8.79;100.00;97913.26;108642;1277;125508;-90
2024/04/11 04:28:08;;;;;;;;;;;;;;;8.79;100.00;97907.56;108804;1279;22555;-90
2024/04/11 04:30:34;;;;;;;;;;;;;;;8.78;100.00;97911.22;108908;1278;23762;-91
2024/04/11 04:33:02;;;;;;;;;;;;;;;8.78;100.00;97910.21;108676;1278;124841;-90
2024/04/11 04:35:29;;;;;;;;;;;;;;;8.79;100.00;97913.73;108667;1279;23812;-90
2024/04/11 04:37:55;;;;;;;;;;;;;;;8.83;100.00;97921.56;108758;1279;125077;-89
2024/04/11 04:40:21;;;;;;;;;;;;;;;8.84;100.00;97921.48;108704;1278;24003;-90
2024/04/11 04:42:49;;;;;;;;;;;;;;;8.84;100.00;97921.81;108830;1278;27352;-89
2024/04/11 04:45:15;;;;;;;;;;;;;;;8.86;100.00;97926.48;108707;1277;124903;-91
2024/04/11 04:47:43;;;;;;;;;;;;;;;8.86;100.00;97923.64;108973;1277;22496;-90
2024/04/11 04:50:09;;;;;;;;;;;;;;;8.87;100.00;97926.56;108735;1272;124981;-91
2024/04/11 04:52:36;;;;;;;;;;;;;;;8.88;100.00;97929.15;108838;1278;22492;-90
2024/04/11 04:55:02;;;;;;;;;;;;;;;8.91;100.00;97932.34;108785;1277;22525;-90
2024/04/11 04:57:30;;;;;;;;;;;;;;;8.95;100.00;97932.77;108721;1278;124843;-90
2024/04/11 04:59:56;;;;;;;;;;;;;;;8.97;100.00;97930.63;108951;1277;27375;-91
2024/04/11 05:02:26;;;;;;;;;;;;;;;9.00;100.00;97926.06;108599;1278;124906;-90
2024/04/11 05:04:53;;;;;;;;;;;;;;;9.04;100.00;97925.02;108852;1278;22542;-89
2024/04/11 05:07:20;;;;;;;;;;;;;;;9.09;100.00;97927.52;108809;1278;22499;-90
2024/04/11 05:09:46;;;;;;;;;;;;;;;9.12;100.00;97928.66;108771;1274;124601;-90
2024/04/11 05:12:12;;;;;;;;;;;;;;;9.16;100.00;97929.86;108713;1278;22496;-90
2024/04/11 05:14:39;;;;;;;;;;;;;;;9.20;100.00;97931.96;108703;1277;125070;-89
2024/04/11 05:17:09;;;;;;;;;;;;;;;9.22;100.00;97926.52;108845;1278;22544;-90
2024/04/11 05:19:35;;;;;;;;;;;;;;;9.26;100.00;97928.44;108672;1278;124990;-90
2024/04/11 05:22:04;;;;;;;;;;;;;;;9.32;100.00;97931.19;108886;1278;24668;-90
2024/04/11 05:24:31;;;;;;;;;;;;;;;9.38;100.00;97932.90;108763;1279;25325;-91
2024/04/11 05:26:58;;;;;;;;;;;;;;;9.43;100.00;97930.23;108768;1278;124832;-89
2024/04/11 05:29:26;;;;;;;;;;;;;;;9.47;100.00;97934.35;108884;1275;22556;-91
2024/04/11 05:31:56;;;;;;;;;;;;;;;9.52;100.00;97935.83;108780;1276;125033;-90
2024/04/11 05:34:25;;;;;;;;;;;;;;;9.56;100.00;97934.20;108877;1278;25199;-89
2024/04/11 05:36:53;;;;;;;;;;;;;;;9.60;100.00;97935.42;108825;1278;22501;-89
2024/04/11 05:39:20;;;;;;;;;;;;;;;9.65;100.00;97939.35;108646;1278;125436;-89
2024/04/11 05:41:47;;;;;;;;;;;;;;;9.70;100.00;97943.67;108886;1278;22501;-90
2024/04/11 05:44:14;;;;;;;;;;;;;;;9.75;100.00;97948.23;108715;1278;125032;-89
2024/04/11 05:46:41;;;;;;;;;;;;;;;9.81;100.00;97950.34;108816;1278;22552;-89
2024/04/11 05:49:07;;;;;;;;;;;;;;;9.86;100.00;97951.75;108813;1276;22495;-89
2024/04/11 05:51:36;;;;;;;;;;;;;;;9.90;100.00;97948.48;108596;1276;124844;-88
2024/04/11 05:54:03;;;;;;;;;;;;;;;9.94;100.00;97946.07;108826;1278;22573;-90
2024/04/11 05:56:29;;;;;;;;;;;;;;;9.97;99.96;97950.08;108728;1278;124758;-90
2024/04/11 05:58:56;;;;;;;;;;;;;;;10.02;100.00;97950.46;108821;1269;25201;-89
2024/04/11 06:01:25;;;;;;;;;;;;;;;10.05;100.00;97953.98;108640;1278;125775;-89
2024/04/11 06:03:52;;;;;;;;;;;;;;;10.04;100.00;97953.09;108900;1278;25222;-90
2024/04/11 06:06:21;;;;;;;;;;;;;;;10.06;100.00;97954.30;108812;1278;23236;-90
2024/04/11 06:08:48;;;;;;;;;;;;;;;10.05;100.00;97963.74;108707;1279;124900;-90
2024/04/11 06:11:17;;;;;;;;;;;;;;;10.06;100.00;97965.39;108805;1278;22497;-90
2024/04/11 06:13:44;;;;;;;;;;;;;;;10.08;100.00;97967.92;108642;1276;125178;-90
2024/04/11 06:16:10;;;;;;;;;;;;;;;10.07;100.00;97972.18;108656;1276;22537;-88
2024/04/11 06:18:36;;;;;;;;;;;;;;;10.07;100.00;97973.55;108664;1278;22523;-88
2024/04/11 06:21:06;;;;;;;;;;;;;;;10.07;100.00;97976.14;108736;1276;125339;-90
2024/04/11 06:23:33;;;;;;;;;;;;;;;10.08;100.00;97983.55;108666;1278;25253;-88
2024/04/11 06:26:00;;;;;;;;;;;;;;;10.06;100.00;97977.95;108753;1278;126328;-90
2024/04/11 06:28:28;;;;;;;;;;;;;;;10.07;100.00;97979.81;108843;1277;22534;-90
2024/04/11 06:30:54;;;;;;;;;;;;;;;10.03;100.00;97986.08;108821;1277;22595;-90
2024/04/11 06:33:24;;;;;;;;;;;;;;;10.01;100.00;97988.66;108760;1272;125105;-89
2024/04/11 06:35:51;;;;;;;;;;;;;;;10.04;100.00;97987.17;108809;1276;22490;-89
2024/04/11 06:38:20;;;;;;;;;;;;;;;10.08;100.00;97986.10;108765;1277;125055;-90
2024/04/11 06:40:47;;;;;;;;;;;;;;;10.12;100.00;97983.33;108833;1272;22506;-90
2024/04/11 06:43:16;;;;;;;;;;;;;;;10.11;100.00;97986.88;108896;1277;22495;-90
2024/04/11 06:45:43;;;;;;;;;;;;;;;10.13;100.00;97990.56;108676;1273;124829;-90
2024/04/11 06:48:10;;;;;;;;;;;;;;;10.10;100.00;97988.36;108853;1276;22498;-90
2024/04/11 06:50:36;;;;;;;;;;;;;;;10.11;100.00;97988.41;108727;1262;125494;-90
2024/04/11 06:53:06;;;;;;;;;;;;;;;10.16;100.00;97989.19;108797;1278;22519;-89
2024/04/11 06:55:34;;;;;;;;;;;;;;;10.20;100.00;97992.10;108774;1277;125207;-89
2024/04/11 06:58:01;;;;;;;;;;;;;;;10.26;100.00;97991.30;108983;1278;23764;-89
2024/04/11 07:00:37;;;;;;;;;;;;;;;10.32;100.00;97991.46;108921;1274;22906;-90
2024/04/11 07:03:13;;;;;;;;;;;;;;;10.34;100.00;97996.80;108784;1273;125609;-90
2024/04/11 07:05:51;;;;;;;;;;;;;;;10.36;100.00;97999.83;108892;1278;22483;-90
2024/04/11 07:08:19;;;;;;;;;;;;;;;10.41;100.00;97999.95;108835;1278;125009;-90
2024/04/11 07:10:46;;;;;;;;;;;;;;;10.44;100.00;98007.80;108785;1278;22517;-89
2024/04/11 07:13:12;;;;;;;;;;;;;;;10.43;100.00;98013.94;108740;1278;25314;-90
2024/04/11 07:15:42;;;;;;;;;;;;;;;10.40;100.00;98014.55;108757;1273;124756;-89
2024/04/11 07:18:14;;;;;;;;;;;;;;;10.41;100.00;98014.86;108847;1278;22508;-89
2024/04/11 07:20:46;;;;;;;;;;;;;;;10.44;100.00;98019.02;108785;1276;125466;-90
2024/04/11 07:23:13;;;;;;;;;;;;;;;10.49;100.00;98015.11;109047;1276;22497;-90
2024/04/11 07:25:40;;;;;;;;;;;;;;;10.51;100.00;98016.67;108714;1278;125132;-90
2024/04/11 07:28:07;;;;;;;;;;;;;;;10.55;100.00;98016.52;108702;1278;22546;-89
2024/04/11 07:30:35;;;;;;;;;;;;;;;10.58;100.00;98019.48;108848;1278;22542;-90
2024/04/11 07:33:06;;;;;;;;;;;;;;;10.58;100.00;98017.65;108741;1278;125029;-90
2024/04/11 07:35:37;;;;;;;;;;;;;;;10.62;100.00;98019.85;108823;1279;24205;-89
2024/04/11 07:38:04;;;;;;;;;;;;;;;10.67;100.00;98022.97;108607;1278;125171;-90
2024/04/11 07:40:45;;;;;;;;;;;;;;;10.71;100.00;98023.49;108648;1278;22518;-90
2024/04/11 07:43:13;;;;;;;;;;;;;;;10.72;100.00;98027.86;108663;1273;22541;-89
2024/04/11 07:45:40;;;;;;;;;;;;;;;10.74;100.00;98031.90;108692;1279;125303;-90
2024/04/11 07:48:08;;;;;;;;;;;;;;;10.79;100.00;98035.52;108706;1278;22484;-90
2024/04/11 07:50:35;;;;;;;;;;;;;;;10.84;100.00;98032.52;108615;1278;124990;-88
2024/04/11 07:53:02;;;;;;;;;;;;;;;10.89;100.00;98032.77;108677;1278;22532;-90
2024/04/11 07:55:29;;;;;;;;;;;;;;;10.91;100.00;98038.09;108628;1274;125717;-90
2024/04/11 07:57:58;;;;;;;;;;;;;;;10.93;100.00;98043.77;108880;1277;22543;-90
2024/04/11 08:00:27;;;;;;;;;;;;;;;10.95;100.00;98048.63;108775;1278;22553;-89
2024/04/11 08:02:56;;;;;;;;;;;;;;;10.95;99.90;98048.63;108763;1278;125083;-90
2024/04/11 08:05:24;;;;;;;;;;;;;;;10.94;100.00;98052.52;108699;1278;22575;-90
2024/04/11 08:07:54;;;;;;;;;;;;;;;10.98;100.00;98057.54;108769;1273;125365;-89
2024/04/11 08:10:20;;;;;;;;;;;;;;;10.97;100.00;98059.60;108825;1274;22544;-90
2024/04/11 08:12:47;;;;;;;;;;;;;;;10.98;100.00;98056.63;108891;1277;22518;-90
2024/04/11 08:15:14;;;;;;;;;;;;;;;11.05;100.00;98056.88;108802;1277;126202;-89
2024/04/11 08:17:42;;;;;;;;;;;;;;;11.08;100.00;98057.29;108752;1278;22556;-90
2024/04/11 08:20:12;;;;;;;;;;;;;;;11.15;100.00;98051.63;108656;1274;125027;-91
2024/04/11 08:22:39;;;;;;;;;;;;;;;11.22;100.00;98052.48;108802;1273;25255;-90
2024/04/11 08:25:06;;;;;;;;;;;;;;;11.29;100.00;98051.70;108817;1274;22488;-90
2024/04/11 08:27:33;;;;;;;;;;;;;;;11.28;99.94;98052.61;108834;1277;125006;-90
2024/04/11 08:29:59;;;;;;;;;;;;;;;11.28;99.60;98056.77;108790;1277;23312;-90
2024/04/11 08:32:26;;;;;;;;;;;;;;;11.29;99.62;98049.17;108716;1274;124755;-89
2024/04/11 08:34:52;;;;;;;;;;;;;;;11.34;99.87;98046.32;108774;1269;22497;-89
2024/04/11 08:37:19;;;;;;;;;;;;;;;11.39;100.00;98046.70;108951;1278;26435;-90
2024/04/11 08:39:45;;;;;;;;;;;;;;;11.47;100.00;98049.77;108703;1278;124715;-90
2024/04/11 08:42:12;;;;;;;;;;;;;;;11.54;100.00;98046.36;108837;1278;22503;-91
2024/04/11 08:44:41;;;;;;;;;;;;;;;11.60;100.00;98049.41;108850;1272;124992;-89
2024/04/11 08:47:07;;;;;;;;;;;;;;;11.64;99.91;98049.83;108939;1278;22492;-90
2024/04/11 08:49:33;;;;;;;;;;;;;;;11.67;99.06;98052.30;108790;1277;124989;-90
2024/04/11 08:52:00;;;;;;;;;;;;;;;11.69;99.36;98047.61;108942;1273;22562;-90
2024/04/11 08:54:26;;;;;;;;;;;;;;;11.76;99.67;98046.83;108779;1276;22543;-90
2024/04/11 08:56:52;;;;;;;;;;;;;;;11.81;98.93;98046.15;108704;1278;125462;-90
2024/04/11 08:59:19;;;;;;;;;;;;;;;11.84;98.03;98049.85;108778;1278;22497;-89
2024/04/11 09:01:46;;;;;;;;;;;;;;;11.85;97.97;98046.98;108713;1273;124862;-90
2024/04/11 09:04:12;;;;;;;;;;;;;;;11.89;97.30;98047.13;108723;1270;24193;-89
2024/04/11 09:06:39;;;;;;;;;;;;;;;11.90;97.28;98048.45;108894;1278;25196;-90
2024/04/11 09:09:15;;;;;;;;;;;;;;;11.90;96.70;98047.02;108883;1277;124750;-90
2024/04/11 09:11:46;;;;;;;;;;;;;;;11.91;96.41;98045.05;108784;1278;22547;-90
2024/04/11 09:14:13;;;;;;;;;;;;;;;11.94;96.49;98049.73;108732;1277;124842;-89
2024/04/11 09:16:39;;;;;;;;;;;;;;;12.02;95.67;98047.41;108849;1277;23125;-90
2024/04/11 09:19:11;;;;;;;;;;;;;;;12.03;95.78;98053.71;108859;1277;22543;-89
2024/04/11 09:21:44;;;;;;;;;;;;;;;12.02;95.14;98053.83;108897;1278;124529;-89
2024/04/11 09:24:16;;;;;;;;;;;;;;;12.10;95.87;98052.05;108827;1278;23312;-91
2024/04/11 09:26:43;;;;;;;;;;;;;;;12.19;95.82;98048.38;108797;1272;125612;-88
2024/04/11 09:29:13;;;;;;;;;;;;;;;12.26;95.46;98046.04;108847;1270;22501;-89
2024/04/11 09:31:40;;;;;;;;;;;;;;;12.32;94.11;98047.84;108754;1277;125085;-90
2024/04/11 09:34:11;;;;;;;;;;;;;;;12.40;95.21;98050.13;108993;1277;25279;-90
2024/04/11 09:36:47;;;;;;;;;;;;;;;12.44;94.65;98053.21;108851;1277;25309;-90
2024/04/11 09:42:11;;;;;;;;;;;;;;;12.54;94.14;98056.34;108908;1273;22526;-89
2024/04/11 09:44:44;;;;;;;;;;;;;;;12.53;91.20;98057.67;108890;1278;125058;-89
2024/04/11 09:47:11;;;;;;;;;;;;;;;12.52;92.13;98056.85;108876;1270;22493;-90
2024/04/11 09:49:38;;;;;;;;;;;;;;;12.55;90.90;98055.31;108667;1270;124976;-90
2024/04/11 09:52:07;;;;;;;;;;;;;;;12.59;91.57;98050.22;108808;1277;22543;-90
2024/04/11 09:54:38;;;;;;;;;;;;;;;12.62;91.05;98049.73;108787;1276;22495;-89
2024/04/11 09:57:05;;;;;;;;;;;;;;;12.74;93.29;98052.23;108736;1274;125378;-89
2024/04/11 09:59:32;;;;;;;;;;;;;;;12.81;91.21;98051.55;108836;1278;22550;-89
2024/04/11 10:02:01;;;;;;;;;;;;;;;12.87;91.23;98050.55;108666;1279;125118;-89
2024/04/11 10:04:35;;;;;;;;;;;;;;;12.91;88.07;98054.27;108931;1278;24269;-90
2024/04/11 10:07:08;;;;;;;;;;;;;;;12.91;88.32;98052.39;108853;1276;22548;-90
2024/04/11 10:09:34;;;;;;;;;;;;;;;12.95;87.87;98053.73;108898;1271;124691;-89
2024/04/11 10:12:04;;;;;;;;;;;;;;;12.98;87.39;98056.36;108701;1278;23746;-89
2024/04/11 10:14:32;;;;;;;;;;;;;;;13.04;87.42;98053.02;108854;1278;125229;-90
2024/04/11 10:17:01;;;;;;;;;;;;;;;13.10;86.91;98054.69;108836;1278;22499;-90
2024/04/11 10:19:31;;;;;;;;;;;;;;;13.15;83.93;98052.77;108715;1278;125115;-90
2024/04/11 10:22:04;;;;;;;;;;;;;;;13.17;85.93;98053.71;108410;1274;430502;-90
2024/04/11 10:24:31;;;;;;;;;;;;;;;13.25;82.70;98053.35;108758;1278;25387;-89
2024/04/11 10:27:11;;;;;;;;;;;;;;;13.19;80.85;98051.83;108614;1278;124361;-90
2024/04/11 10:29:43;;;;;;;;;;;;;;;13.18;82.32;98051.95;108760;1270;23358;-90
2024/04/11 10:32:13;;;;;;;;;;;;;;;13.24;83.85;98051.20;108602;1278;124763;-90
2024/04/11 10:34:47;;;;;;;;;;;;;;;13.29;81.42;98048.91;108838;1277;22556;-90
2024/04/11 10:37:23;;;;;;;;;;;;;;;13.22;78.85;98047.38;108805;1278;22511;-89
2024/04/11 10:39:54;;;;;;;;;;;;;;;13.25;83.02;98047.60;108926;1278;22505;-90
2024/04/11 10:42:27;;;;;;;;;;;;;;;13.38;82.37;98042.75;108767;1278;22541;-90
2024/04/11 10:44:54;;;;;;;;;;;;;;;13.38;78.31;98045.34;108724;1277;124476;-90
2024/04/11 10:47:21;;;;;;;;;;;;;;;13.38;79.61;98042.73;108968;1275;22519;-90
2024/04/11 10:49:51;;;;;;;;;;;;;;;13.44;81.25;98039.63;108711;1277;124988;-90
2024/04/11 10:52:21;;;;;;;;;;;;;;;13.54;78.69;98040.36;108770;1277;22505;-90
2024/04/11 10:54:51;;;;;;;;;;;;;;;13.62;80.03;98040.98;108785;1278;22516;-90
2024/04/11 10:57:17;;;;;;;;;;;;;;;13.60;77.44;98036.40;108785;1277;124421;-90
2024/04/11 10:59:53;;;;;;;;;;;;;;;13.54;76.97;98036.70;108858;1277;22520;-90
2024/04/11 11:02:20;;;;;;;;;;;;;;;13.54;78.50;98036.60;108771;1263;124048;-90
2024/04/11 11:04:50;;;;;;;;;;;;;;;13.60;78.08;98033.54;108909;1270;24018;-90
2024/04/11 11:07:23;;;;;;;;;;;;;;;13.67;78.95;98037.77;108777;1277;23285;-91
2024/04/11 11:09:53;;;;;;;;;;;;;;;13.74;77.61;98037.52;108920;1274;22525;-90
2024/04/11 11:12:19;;;;;;;;;;;;;;;13.82;79.85;98033.77;108963;1271;23099;-90
2024/04/11 11:14:46;;;;;;;;;;;;;;;13.95;81.12;98030.81;108697;1277;124970;-90
2024/04/11 11:17:19;;;;;;;;;;;;;;;14.04;79.17;98029.70;108749;1274;23789;-90
2024/04/11 11:19:49;;;;;;;;;;;;;;;14.08;78.29;98029.89;108694;1278;124930;-90
2024/04/11 11:22:18;;;;;;;;;;;;;;;14.11;76.19;98029.55;108742;1278;22495;-90
2024/04/11 11:24:47;;;;;;;;;;;;;;;14.09;76.78;98029.66;108765;1278;22593;-89
2024/04/11 11:27:13;;;;;;;;;;;;;;;14.12;77.46;98024.14;108801;1278;124176;-90
2024/04/11 11:29:48;;;;;;;;;;;;;;;14.21;79.67;98024.90;108783;1279;22531;-90
2024/04/11 11:32:20;;;;;;;;;;;;;;;14.30;77.77;98025.89;108808;1278;124863;-88
2024/04/11 11:34:47;;;;;;;;;;;;;;;14.32;77.00;98025.23;108761;1278;25248;-90
2024/04/11 11:37:14;;;;;;;;;;;;;;;14.38;78.42;98021.33;108773;1278;24213;-91
2024/04/11 11:39:43;;;;;;;;;;;;;;;14.50;79.06;98017.61;108656;1278;124598;-90
2024/04/11 11:42:10;;;;;;;;;;;;;;;14.51;76.43;98019.08;108941;1278;23810;-90
2024/04/11 11:47:35;;;;;;;;;;;;;;;14.42;75.74;98017.94;108721;1274;22501;-89
2024/04/11 11:50:07;;;;;;;;;;;;;;;14.43;77.08;98014.45;108641;1278;124311;-91
2024/04/11 11:52:37;;;;;;;;;;;;;;;14.48;76.28;98011.55;108741;1273;22574;-90
2024/04/11 11:55:04;;;;;;;;;;;;;;;14.49;76.81;98010.04;108848;1275;22546;-90
2024/04/11 11:57:39;;;;;;;;;;;;;;;14.54;78.01;98011.02;108716;1273;124392;-90
2024/04/11 12:00:18;;;;;;;;;;;;;;;14.60;77.44;98003.29;108794;1278;22534;-90
2024/04/11 12:02:56;;;;;;;;;;;;;;;14.65;77.25;98001.13;108739;1270;124183;-91
2024/04/11 12:05:23;;;;;;;;;;;;;;;14.71;78.33;98001.54;108946;1273;22543;-90
2024/04/11 12:07:52;;;;;;;;;;;;;;;14.71;73.88;98001.20;108759;1277;125084;-89
2024/04/11 12:10:29;;;;;;;;;;;;;;;14.63;74.55;98002.95;109101;1277;22626;-91
2024/04/11 12:15:48;;;;;;;;;;;;;;;14.63;73.63;97999.38;108690;1272;124224;-90
2024/04/11 12:18:16;;;;;;;;;;;;;;;14.63;74.86;97998.23;108777;1278;22531;-89
2024/04/11 12:20:43;;;;;;;;;;;;;;;14.66;74.10;97995.44;108564;1278;124457;-90
2024/04/11 12:23:10;;;;;;;;;;;;;;;14.64;73.98;97994.77;108852;1277;22546;-90
2024/04/11 12:25:37;;;;;;;;;;;;;;;14.65;74.90;97986.54;108680;1273;124368;-91
2024/04/11 12:28:09;;;;;;;;;;;;;;;14.70;76.45;97992.18;108786;1278;22636;-90
2024/04/11 12:30:36;;;;;;;;;;;;;;;14.75;76.36;97987.19;109075;1276;22506;-90
2024/04/11 12:33:05;;;;;;;;;;;;;;;14.77;76.29;97989.36;108775;1266;124201;-90
2024/04/11 12:35:41;;;;;;;;;;;;;;;14.76;75.16;97989.77;108969;1277;24095;-90
2024/04/11 12:38:13;;;;;;;;;;;;;;;14.79;76.26;97982.50;108730;1277;124654;-88
2024/04/11 12:40:48;;;;;;;;;;;;;;;14.85;76.57;97977.19;108877;1277;22537;-88
2024/04/11 12:43:16;;;;;;;;;;;;;;;14.85;74.64;97980.74;108804;1277;24169;-88